sensor_id;sensor_type;location;lat;lon;timestamp;P1;durP1;ratioP1;P2;durP2;ratioP2
1591;SDS011;789;51.612;7.510;2022-09-09T00:01:36;4.60;;;1.57;;
1591;SDS011;789;51.612;7.510;2022-09-09T00:04:09;4.40;;;1.20;;
1591;SDS011;789;51.612;7.510;2022-09-09T00:06:43;2.23;;;1.20;;
1591;SDS011;789;51.612;7.510;2022-09-09T00:09:12;1.43;;;1.23;;
1591;SDS011;789;51.612;7.510;2022-09-09T00:11:45;8.63;;;1.80;;
1591;SDS011;789;51.612;7.510;2022-09-09T00:14:17;2.73;;;1.00;;
1591;SDS011;789;51.612;7.510;2022-09-09T00:16:50;2.10;;;1.30;;
1591;SDS011;789;51.612;7.510;2022-09-09T00:19:22;2.10;;;1.20;;
1591;SDS011;789;51.612;7.510;2022-09-09T00:21:59;3.80;;;2.00;;
1591;SDS011;789;51.612;7.510;2022-09-09T00:24:36;3.60;;;3.23;;
1591;SDS011;789;51.612;7.510;2022-09-09T00:27:11;4.97;;;3.17;;
1591;SDS011;789;51.612;7.510;2022-09-09T00:29:45;5.00;;;3.40;;
1591;SDS011;789;51.612;7.510;2022-09-09T00:32:18;5.97;;;3.57;;
1591;SDS011;789;51.612;7.510;2022-09-09T00:34:47;4.37;;;2.80;;
1591;SDS011;789;51.612;7.510;2022-09-09T00:37:15;3.03;;;2.73;;
1591;SDS011;789;51.612;7.510;2022-09-09T00:39:44;5.30;;;2.10;;
1591;SDS011;789;51.612;7.510;2022-09-09T00:42:15;4.20;;;2.30;;
1591;SDS011;789;51.612;7.510;2022-09-09T00:44:51;3.63;;;2.47;;
1591;SDS011;789;51.612;7.510;2022-09-09T00:50:22;3.17;;;2.67;;
1591;SDS011;789;51.612;7.510;2022-09-09T00:53:11;3.90;;;3.50;;
1591;SDS011;789;51.612;7.510;2022-09-09T00:55:47;5.50;;;3.77;;
1591;SDS011;789;51.612;7.510;2022-09-09T00:58:19;4.37;;;2.60;;
1591;SDS011;789;51.612;7.510;2022-09-09T01:00:47;3.57;;;2.27;;
1591;SDS011;789;51.612;7.510;2022-09-09T01:03:22;8.17;;;3.80;;
1591;SDS011;789;51.612;7.510;2022-09-09T01:06:00;5.20;;;3.90;;
1591;SDS011;789;51.612;7.510;2022-09-09T01:08:44;4.33;;;2.57;;
1591;SDS011;789;51.612;7.510;2022-09-09T01:11:25;3.67;;;1.83;;
1591;SDS011;789;51.612;7.510;2022-09-09T01:13:58;3.10;;;1.90;;
1591;SDS011;789;51.612;7.510;2022-09-09T01:16:30;2.00;;;1.30;;
1591;SDS011;789;51.612;7.510;2022-09-09T01:18:59;3.03;;;1.47;;
1591;SDS011;789;51.612;7.510;2022-09-09T01:21:29;4.10;;;1.80;;
1591;SDS011;789;51.612;7.510;2022-09-09T01:24:08;2.73;;;1.50;;
1591;SDS011;789;51.612;7.510;2022-09-09T01:26:46;2.67;;;1.87;;
1591;SDS011;789;51.612;7.510;2022-09-09T01:29:17;2.90;;;2.30;;
1591;SDS011;789;51.612;7.510;2022-09-09T01:31:51;3.57;;;2.23;;
1591;SDS011;789;51.612;7.510;2022-09-09T01:34:22;4.53;;;3.53;;
1591;SDS011;789;51.612;7.510;2022-09-09T01:36:51;4.50;;;3.77;;
1591;SDS011;789;51.612;7.510;2022-09-09T01:39:23;5.63;;;3.77;;
1591;SDS011;789;51.612;7.510;2022-09-09T01:41:51;4.77;;;2.80;;
1591;SDS011;789;51.612;7.510;2022-09-09T01:44:19;3.27;;;2.20;;
1591;SDS011;789;51.612;7.510;2022-09-09T01:46:46;2.77;;;1.83;;
1591;SDS011;789;51.612;7.510;2022-09-09T01:49:13;2.40;;;2.20;;
1591;SDS011;789;51.612;7.510;2022-09-09T01:51:40;4.00;;;2.10;;
1591;SDS011;789;51.612;7.510;2022-09-09T01:54:09;3.20;;;2.10;;
1591;SDS011;789;51.612;7.510;2022-09-09T01:56:40;3.90;;;2.13;;
1591;SDS011;789;51.612;7.510;2022-09-09T01:59:18;4.40;;;2.53;;
1591;SDS011;789;51.612;7.510;2022-09-09T02:01:57;3.50;;;2.50;;
1591;SDS011;789;51.612;7.510;2022-09-09T02:04:36;4.10;;;2.30;;
1591;SDS011;789;51.612;7.510;2022-09-09T02:07:06;3.63;;;2.50;;
1591;SDS011;789;51.612;7.510;2022-09-09T02:09:49;3.50;;;2.47;;
1591;SDS011;789;51.612;7.510;2022-09-09T02:12:24;3.40;;;2.20;;
1591;SDS011;789;51.612;7.510;2022-09-09T02:14:56;3.47;;;2.60;;
1591;SDS011;789;51.612;7.510;2022-09-09T02:17:29;6.67;;;2.73;;
1591;SDS011;789;51.612;7.510;2022-09-09T02:20:02;4.27;;;2.40;;
1591;SDS011;789;51.612;7.510;2022-09-09T02:22:32;5.33;;;2.60;;
1591;SDS011;789;51.612;7.510;2022-09-09T02:25:00;3.20;;;2.27;;
1591;SDS011;789;51.612;7.510;2022-09-09T02:27:30;4.30;;;2.27;;
1591;SDS011;789;51.612;7.510;2022-09-09T02:29:59;4.20;;;2.23;;
1591;SDS011;789;51.612;7.510;2022-09-09T02:32:27;3.87;;;2.40;;
1591;SDS011;789;51.612;7.510;2022-09-09T02:34:57;7.90;;;2.80;;
1591;SDS011;789;51.612;7.510;2022-09-09T02:37:29;3.27;;;2.53;;
1591;SDS011;789;51.612;7.510;2022-09-09T02:40:01;5.00;;;2.97;;
1591;SDS011;789;51.612;7.510;2022-09-09T02:42:28;6.17;;;2.40;;
1591;SDS011;789;51.612;7.510;2022-09-09T02:44:55;4.87;;;3.17;;
1591;SDS011;789;51.612;7.510;2022-09-09T02:47:27;3.07;;;2.50;;
1591;SDS011;789;51.612;7.510;2022-09-09T02:50:06;5.20;;;2.90;;
1591;SDS011;789;51.612;7.510;2022-09-09T02:52:42;5.33;;;3.10;;
1591;SDS011;789;51.612;7.510;2022-09-09T02:55:17;6.87;;;2.93;;
1591;SDS011;789;51.612;7.510;2022-09-09T02:57:48;4.40;;;2.93;;
1591;SDS011;789;51.612;7.510;2022-09-09T03:00:22;5.93;;;3.93;;
1591;SDS011;789;51.612;7.510;2022-09-09T03:02:51;6.73;;;3.00;;
1591;SDS011;789;51.612;7.510;2022-09-09T03:05:19;8.60;;;4.33;;
1591;SDS011;789;51.612;7.510;2022-09-09T03:07:46;6.13;;;3.60;;
1591;SDS011;789;51.612;7.510;2022-09-09T03:10:14;6.77;;;4.23;;
1591;SDS011;789;51.612;7.510;2022-09-09T03:12:41;6.20;;;3.87;;
1591;SDS011;789;51.612;7.510;2022-09-09T03:15:08;7.57;;;4.30;;
1591;SDS011;789;51.612;7.510;2022-09-09T03:17:35;5.30;;;3.40;;
1591;SDS011;789;51.612;7.510;2022-09-09T03:20:04;4.00;;;3.43;;
1591;SDS011;789;51.612;7.510;2022-09-09T03:22:31;5.43;;;2.93;;
1591;SDS011;789;51.612;7.510;2022-09-09T03:24:58;6.43;;;3.03;;
1591;SDS011;789;51.612;7.510;2022-09-09T03:27:24;5.43;;;2.70;;
1591;SDS011;789;51.612;7.510;2022-09-09T03:29:51;4.77;;;2.80;;
1591;SDS011;789;51.612;7.510;2022-09-09T03:32:18;4.47;;;2.40;;
1591;SDS011;789;51.612;7.510;2022-09-09T03:34:47;5.10;;;2.70;;
1591;SDS011;789;51.612;7.510;2022-09-09T03:37:16;3.90;;;2.30;;
1591;SDS011;789;51.612;7.510;2022-09-09T03:39:43;4.07;;;2.90;;
1591;SDS011;789;51.612;7.510;2022-09-09T03:42:11;4.30;;;2.53;;
1591;SDS011;789;51.612;7.510;2022-09-09T03:44:43;5.63;;;2.43;;
1591;SDS011;789;51.612;7.510;2022-09-09T03:47:14;6.47;;;2.93;;
1591;SDS011;789;51.612;7.510;2022-09-09T03:49:41;6.87;;;2.90;;
1591;SDS011;789;51.612;7.510;2022-09-09T03:52:08;5.47;;;3.40;;
1591;SDS011;789;51.612;7.510;2022-09-09T03:54:37;6.47;;;2.90;;
1591;SDS011;789;51.612;7.510;2022-09-09T03:57:04;7.37;;;3.70;;
1591;SDS011;789;51.612;7.510;2022-09-09T03:59:31;5.13;;;3.33;;
1591;SDS011;789;51.612;7.510;2022-09-09T04:01:57;5.37;;;3.73;;
1591;SDS011;789;51.612;7.510;2022-09-09T04:04:24;4.97;;;3.13;;
1591;SDS011;789;51.612;7.510;2022-09-09T04:06:52;4.90;;;3.00;;
1591;SDS011;789;51.612;7.510;2022-09-09T04:09:19;6.13;;;3.50;;
1591;SDS011;789;51.612;7.510;2022-09-09T04:11:47;4.63;;;3.30;;
1591;SDS011;789;51.612;7.510;2022-09-09T04:14:14;4.23;;;3.27;;
1591;SDS011;789;51.612;7.510;2022-09-09T04:16:42;10.10;;;3.10;;
1591;SDS011;789;51.612;7.510;2022-09-09T04:19:09;7.33;;;3.27;;
1591;SDS011;789;51.612;7.510;2022-09-09T04:21:37;6.63;;;2.70;;
1591;SDS011;789;51.612;7.510;2022-09-09T04:24:05;3.97;;;2.63;;
1591;SDS011;789;51.612;7.510;2022-09-09T04:26:32;4.50;;;2.50;;
1591;SDS011;789;51.612;7.510;2022-09-09T04:29:01;5.43;;;2.50;;
1591;SDS011;789;51.612;7.510;2022-09-09T04:31:27;3.63;;;2.50;;
1591;SDS011;789;51.612;7.510;2022-09-09T04:33:54;3.50;;;2.50;;
1591;SDS011;789;51.612;7.510;2022-09-09T04:36:21;2.40;;;2.20;;
1591;SDS011;789;51.612;7.510;2022-09-09T04:38:48;3.70;;;2.53;;
1591;SDS011;789;51.612;7.510;2022-09-09T04:41:15;3.50;;;2.17;;
1591;SDS011;789;51.612;7.510;2022-09-09T04:43:42;6.80;;;2.80;;
1591;SDS011;789;51.612;7.510;2022-09-09T04:46:10;5.40;;;2.60;;
1591;SDS011;789;51.612;7.510;2022-09-09T04:48:37;6.53;;;2.70;;
1591;SDS011;789;51.612;7.510;2022-09-09T04:51:04;10.10;;;3.03;;
1591;SDS011;789;51.612;7.510;2022-09-09T04:53:33;7.10;;;3.00;;
1591;SDS011;789;51.612;7.510;2022-09-09T04:56:03;8.60;;;3.40;;
1591;SDS011;789;51.612;7.510;2022-09-09T04:58:32;5.97;;;4.10;;
1591;SDS011;789;51.612;7.510;2022-09-09T05:01:03;10.00;;;5.33;;
1591;SDS011;789;51.612;7.510;2022-09-09T05:03:32;11.23;;;5.10;;
1591;SDS011;789;51.612;7.510;2022-09-09T05:06:02;11.73;;;5.10;;
1591;SDS011;789;51.612;7.510;2022-09-09T05:08:31;9.97;;;4.53;;
1591;SDS011;789;51.612;7.510;2022-09-09T05:10:58;4.87;;;3.80;;
1591;SDS011;789;51.612;7.510;2022-09-09T05:13:25;5.43;;;3.67;;
1591;SDS011;789;51.612;7.510;2022-09-09T05:15:52;5.27;;;3.60;;
1591;SDS011;789;51.612;7.510;2022-09-09T05:18:19;11.30;;;4.00;;
1591;SDS011;789;51.612;7.510;2022-09-09T05:20:48;6.33;;;4.00;;
1591;SDS011;789;51.612;7.510;2022-09-09T05:23:16;5.53;;;4.10;;
1591;SDS011;789;51.612;7.510;2022-09-09T05:25:43;6.33;;;4.00;;
1591;SDS011;789;51.612;7.510;2022-09-09T05:28:11;10.07;;;4.27;;
1591;SDS011;789;51.612;7.510;2022-09-09T05:30:38;9.93;;;4.33;;
1591;SDS011;789;51.612;7.510;2022-09-09T05:33:05;8.80;;;4.23;;
1591;SDS011;789;51.612;7.510;2022-09-09T05:35:34;8.17;;;3.80;;
1591;SDS011;789;51.612;7.510;2022-09-09T05:38:02;12.60;;;4.10;;
1591;SDS011;789;51.612;7.510;2022-09-09T05:40:29;8.63;;;4.93;;
1591;SDS011;789;51.612;7.510;2022-09-09T05:42:59;8.47;;;5.23;;
1591;SDS011;789;51.612;7.510;2022-09-09T05:45:26;11.23;;;6.87;;
1591;SDS011;789;51.612;7.510;2022-09-09T05:47:53;9.80;;;6.00;;
1591;SDS011;789;51.612;7.510;2022-09-09T05:50:20;8.13;;;4.80;;
1591;SDS011;789;51.612;7.510;2022-09-09T05:52:47;6.00;;;4.23;;
1591;SDS011;789;51.612;7.510;2022-09-09T05:55:16;5.60;;;4.17;;
1591;SDS011;789;51.612;7.510;2022-09-09T05:57:47;8.03;;;4.30;;
1591;SDS011;789;51.612;7.510;2022-09-09T06:00:16;5.67;;;4.10;;
1591;SDS011;789;51.612;7.510;2022-09-09T06:02:44;5.90;;;4.50;;
1591;SDS011;789;51.612;7.510;2022-09-09T06:05:17;11.17;;;5.30;;
1591;SDS011;789;51.612;7.510;2022-09-09T06:07:45;10.10;;;4.63;;
1591;SDS011;789;51.612;7.510;2022-09-09T06:10:12;5.60;;;4.07;;
1591;SDS011;789;51.612;7.510;2022-09-09T06:12:40;8.57;;;5.20;;
1591;SDS011;789;51.612;7.510;2022-09-09T06:15:08;8.93;;;4.37;;
1591;SDS011;789;51.612;7.510;2022-09-09T06:17:35;13.80;;;5.57;;
1591;SDS011;789;51.612;7.510;2022-09-09T06:20:02;9.47;;;5.60;;
1591;SDS011;789;51.612;7.510;2022-09-09T06:22:30;8.20;;;4.73;;
1591;SDS011;789;51.612;7.510;2022-09-09T06:24:56;9.30;;;4.33;;
1591;SDS011;789;51.612;7.510;2022-09-09T06:27:23;12.90;;;5.23;;
1591;SDS011;789;51.612;7.510;2022-09-09T06:29:51;11.73;;;4.90;;
1591;SDS011;789;51.612;7.510;2022-09-09T06:32:18;14.20;;;5.20;;
1591;SDS011;789;51.612;7.510;2022-09-09T06:34:45;11.57;;;5.77;;
1591;SDS011;789;51.612;7.510;2022-09-09T06:37:14;9.60;;;5.27;;
1591;SDS011;789;51.612;7.510;2022-09-09T06:39:41;8.63;;;5.83;;
1591;SDS011;789;51.612;7.510;2022-09-09T06:42:07;7.97;;;4.90;;
1591;SDS011;789;51.612;7.510;2022-09-09T06:44:34;7.60;;;4.30;;
1591;SDS011;789;51.612;7.510;2022-09-09T06:47:03;5.23;;;3.37;;
1591;SDS011;789;51.612;7.510;2022-09-09T06:49:30;8.43;;;3.33;;
1591;SDS011;789;51.612;7.510;2022-09-09T06:51:57;8.63;;;3.97;;
1591;SDS011;789;51.612;7.510;2022-09-09T06:54:24;7.90;;;2.80;;
1591;SDS011;789;51.612;7.510;2022-09-09T06:56:50;7.40;;;3.20;;
1591;SDS011;789;51.612;7.510;2022-09-09T06:59:17;8.37;;;3.20;;
1591;SDS011;789;51.612;7.510;2022-09-09T07:01:44;7.17;;;3.17;;
1591;SDS011;789;51.612;7.510;2022-09-09T07:04:13;6.40;;;3.20;;
1591;SDS011;789;51.612;7.510;2022-09-09T07:06:40;9.03;;;3.80;;
1591;SDS011;789;51.612;7.510;2022-09-09T07:09:09;7.40;;;3.67;;
1591;SDS011;789;51.612;7.510;2022-09-09T07:11:38;6.77;;;4.30;;
1591;SDS011;789;51.612;7.510;2022-09-09T07:14:07;7.60;;;3.73;;
1591;SDS011;789;51.612;7.510;2022-09-09T07:16:36;6.97;;;4.10;;
1591;SDS011;789;51.612;7.510;2022-09-09T07:19:04;9.90;;;3.73;;
1591;SDS011;789;51.612;7.510;2022-09-09T07:21:32;5.47;;;3.60;;
1591;SDS011;789;51.612;7.510;2022-09-09T07:24:00;16.07;;;4.83;;
1591;SDS011;789;51.612;7.510;2022-09-09T07:26:28;8.90;;;3.70;;
1591;SDS011;789;51.612;7.510;2022-09-09T07:28:56;7.00;;;3.80;;
1591;SDS011;789;51.612;7.510;2022-09-09T07:31:24;8.30;;;3.13;;
1591;SDS011;789;51.612;7.510;2022-09-09T07:33:52;7.77;;;3.47;;
1591;SDS011;789;51.612;7.510;2022-09-09T07:36:20;6.90;;;2.60;;
1591;SDS011;789;51.612;7.510;2022-09-09T07:38:50;8.13;;;3.43;;
1591;SDS011;789;51.612;7.510;2022-09-09T07:41:19;8.57;;;3.23;;
1591;SDS011;789;51.612;7.510;2022-09-09T07:43:47;5.83;;;3.30;;
1591;SDS011;789;51.612;7.510;2022-09-09T07:46:16;6.43;;;2.90;;
1591;SDS011;789;51.612;7.510;2022-09-09T07:48:45;12.20;;;3.93;;
1591;SDS011;789;51.612;7.510;2022-09-09T07:51:16;6.33;;;3.80;;
1591;SDS011;789;51.612;7.510;2022-09-09T07:53:45;7.97;;;2.67;;
1591;SDS011;789;51.612;7.510;2022-09-09T07:56:14;6.53;;;2.43;;
1591;SDS011;789;51.612;7.510;2022-09-09T07:58:44;5.50;;;2.20;;
1591;SDS011;789;51.612;7.510;2022-09-09T08:01:13;9.00;;;3.10;;
1591;SDS011;789;51.612;7.510;2022-09-09T08:03:41;9.47;;;3.67;;
1591;SDS011;789;51.612;7.510;2022-09-09T08:06:08;5.60;;;2.57;;
1591;SDS011;789;51.612;7.510;2022-09-09T08:08:35;8.07;;;3.07;;
1591;SDS011;789;51.612;7.510;2022-09-09T08:11:04;10.73;;;4.00;;
1591;SDS011;789;51.612;7.510;2022-09-09T08:13:35;9.17;;;3.03;;
1591;SDS011;789;51.612;7.510;2022-09-09T08:16:06;5.33;;;2.30;;
1591;SDS011;789;51.612;7.510;2022-09-09T08:18:34;9.93;;;2.40;;
1591;SDS011;789;51.612;7.510;2022-09-09T08:21:06;9.63;;;3.60;;
1591;SDS011;789;51.612;7.510;2022-09-09T08:23:35;11.13;;;2.67;;
1591;SDS011;789;51.612;7.510;2022-09-09T08:26:03;5.53;;;2.23;;
1591;SDS011;789;51.612;7.510;2022-09-09T08:28:31;4.20;;;2.20;;
1591;SDS011;789;51.612;7.510;2022-09-09T08:31:05;6.57;;;1.97;;
1591;SDS011;789;51.612;7.510;2022-09-09T08:33:34;3.63;;;1.73;;
1591;SDS011;789;51.612;7.510;2022-09-09T08:36:03;4.10;;;1.73;;
1591;SDS011;789;51.612;7.510;2022-09-09T08:38:31;4.20;;;2.00;;
1591;SDS011;789;51.612;7.510;2022-09-09T08:40:59;3.77;;;1.60;;
1591;SDS011;789;51.612;7.510;2022-09-09T08:43:36;3.57;;;1.57;;
1591;SDS011;789;51.612;7.510;2022-09-09T08:46:06;6.30;;;2.53;;
1591;SDS011;789;51.612;7.510;2022-09-09T08:48:46;10.83;;;1.97;;
1591;SDS011;789;51.612;7.510;2022-09-09T08:51:20;5.50;;;2.00;;
1591;SDS011;789;51.612;7.510;2022-09-09T08:53:52;5.03;;;1.73;;
1591;SDS011;789;51.612;7.510;2022-09-09T08:56:21;8.83;;;2.33;;
1591;SDS011;789;51.612;7.510;2022-09-09T08:58:56;7.63;;;3.60;;
1591;SDS011;789;51.612;7.510;2022-09-09T09:01:35;9.17;;;2.37;;
1591;SDS011;789;51.612;7.510;2022-09-09T09:04:12;5.43;;;1.80;;
1591;SDS011;789;51.612;7.510;2022-09-09T09:06:50;6.80;;;1.70;;
1591;SDS011;789;51.612;7.510;2022-09-09T09:09:30;6.13;;;2.13;;
1591;SDS011;789;51.612;7.510;2022-09-09T09:12:07;4.70;;;1.90;;
1591;SDS011;789;51.612;7.510;2022-09-09T09:14:41;5.57;;;2.20;;
1591;SDS011;789;51.612;7.510;2022-09-09T09:17:14;8.37;;;3.97;;
1591;SDS011;789;51.612;7.510;2022-09-09T09:19:42;4.40;;;1.90;;
1591;SDS011;789;51.612;7.510;2022-09-09T09:22:12;5.30;;;2.60;;
1591;SDS011;789;51.612;7.510;2022-09-09T09:24:45;6.97;;;2.53;;
1591;SDS011;789;51.612;7.510;2022-09-09T09:27:18;5.20;;;2.20;;
1591;SDS011;789;51.612;7.510;2022-09-09T09:29:51;4.93;;;2.50;;
1591;SDS011;789;51.612;7.510;2022-09-09T09:32:23;4.90;;;2.70;;
1591;SDS011;789;51.612;7.510;2022-09-09T09:34:53;9.83;;;4.30;;
1591;SDS011;789;51.612;7.510;2022-09-09T09:37:23;7.27;;;2.80;;
1591;SDS011;789;51.612;7.510;2022-09-09T09:39:54;6.17;;;2.63;;
1591;SDS011;789;51.612;7.510;2022-09-09T09:42:20;6.60;;;2.13;;
1591;SDS011;789;51.612;7.510;2022-09-09T09:44:48;4.17;;;1.93;;
1591;SDS011;789;51.612;7.510;2022-09-09T09:47:15;5.43;;;2.20;;
1591;SDS011;789;51.612;7.510;2022-09-09T09:49:54;6.67;;;2.90;;
1591;SDS011;789;51.612;7.510;2022-09-09T09:52:24;6.47;;;2.37;;
1591;SDS011;789;51.612;7.510;2022-09-09T09:54:53;4.60;;;2.30;;
1591;SDS011;789;51.612;7.510;2022-09-09T09:57:23;5.07;;;2.63;;
1591;SDS011;789;51.612;7.510;2022-09-09T10:00:00;4.77;;;2.80;;
1591;SDS011;789;51.612;7.510;2022-09-09T10:02:36;3.17;;;2.50;;
1591;SDS011;789;51.612;7.510;2022-09-09T10:05:12;4.90;;;2.30;;
1591;SDS011;789;51.612;7.510;2022-09-09T10:07:40;5.97;;;1.97;;
1591;SDS011;789;51.612;7.510;2022-09-09T10:10:12;4.97;;;2.27;;
1591;SDS011;789;51.612;7.510;2022-09-09T10:12:49;7.20;;;2.10;;
1591;SDS011;789;51.612;7.510;2022-09-09T10:15:27;3.10;;;1.63;;
1591;SDS011;789;51.612;7.510;2022-09-09T10:18:06;3.93;;;1.33;;
1591;SDS011;789;51.612;7.510;2022-09-09T10:20:45;6.97;;;2.10;;
1591;SDS011;789;51.612;7.510;2022-09-09T10:23:28;7.00;;;1.90;;
1591;SDS011;789;51.612;7.510;2022-09-09T10:26:12;4.37;;;2.03;;
1591;SDS011;789;51.612;7.510;2022-09-09T10:29:05;7.20;;;1.97;;
1591;SDS011;789;51.612;7.510;2022-09-09T10:31:49;14.90;;;3.67;;
1591;SDS011;789;51.612;7.510;2022-09-09T10:34:35;15.13;;;5.13;;
1591;SDS011;789;51.612;7.510;2022-09-09T10:37:24;8.97;;;4.50;;
1591;SDS011;789;51.612;7.510;2022-09-09T10:40:05;6.70;;;2.83;;
1591;SDS011;789;51.612;7.510;2022-09-09T10:42:49;4.80;;;1.90;;
1591;SDS011;789;51.612;7.510;2022-09-09T10:45:17;7.43;;;1.50;;
1591;SDS011;789;51.612;7.510;2022-09-09T10:47:50;5.60;;;3.07;;
1591;SDS011;789;51.612;7.510;2022-09-09T10:50:33;9.13;;;2.70;;
1591;SDS011;789;51.612;7.510;2022-09-09T10:53:24;5.10;;;1.97;;
1591;SDS011;789;51.612;7.510;2022-09-09T10:56:01;4.80;;;1.50;;
1591;SDS011;789;51.612;7.510;2022-09-09T10:58:33;4.97;;;2.20;;
1591;SDS011;789;51.612;7.510;2022-09-09T11:01:09;6.17;;;1.70;;
1591;SDS011;789;51.612;7.510;2022-09-09T11:03:41;5.60;;;2.00;;
1591;SDS011;789;51.612;7.510;2022-09-09T11:06:12;9.20;;;2.37;;
1591;SDS011;789;51.612;7.510;2022-09-09T11:08:45;4.87;;;2.00;;
1591;SDS011;789;51.612;7.510;2022-09-09T11:11:16;3.70;;;1.90;;
1591;SDS011;789;51.612;7.510;2022-09-09T11:13:48;5.20;;;1.80;;
1591;SDS011;789;51.612;7.510;2022-09-09T11:16:23;5.00;;;1.70;;
1591;SDS011;789;51.612;7.510;2022-09-09T11:18:55;4.03;;;1.60;;
1591;SDS011;789;51.612;7.510;2022-09-09T11:21:27;3.57;;;1.70;;
1591;SDS011;789;51.612;7.510;2022-09-09T11:24:01;4.00;;;1.90;;
1591;SDS011;789;51.612;7.510;2022-09-09T11:26:38;4.33;;;2.43;;
1591;SDS011;789;51.612;7.510;2022-09-09T11:32:17;4.57;;;1.63;;
1591;SDS011;789;51.612;7.510;2022-09-09T11:34:56;3.10;;;1.30;;
1591;SDS011;789;51.612;7.510;2022-09-09T11:37:37;2.63;;;1.50;;
1591;SDS011;789;51.612;7.510;2022-09-09T11:40:18;3.20;;;1.60;;
1591;SDS011;789;51.612;7.510;2022-09-09T11:42:48;2.90;;;2.00;;
1591;SDS011;789;51.612;7.510;2022-09-09T11:45:30;4.43;;;1.93;;
1591;SDS011;789;51.612;7.510;2022-09-09T11:48:00;5.07;;;2.63;;
1591;SDS011;789;51.612;7.510;2022-09-09T11:50:33;5.10;;;3.30;;
1591;SDS011;789;51.612;7.510;2022-09-09T11:53:03;2.83;;;1.80;;
1591;SDS011;789;51.612;7.510;2022-09-09T11:56:00;4.77;;;3.17;;
1591;SDS011;789;51.612;7.510;2022-09-09T11:58:31;7.10;;;3.10;;
1591;SDS011;789;51.612;7.510;2022-09-09T12:01:13;2.23;;;1.50;;
1591;SDS011;789;51.612;7.510;2022-09-09T12:03:58;4.80;;;1.60;;
1591;SDS011;789;51.612;7.510;2022-09-09T12:06:44;5.57;;;2.00;;
1591;SDS011;789;51.612;7.510;2022-09-09T12:09:16;5.63;;;2.20;;
1591;SDS011;789;51.612;7.510;2022-09-09T12:11:50;8.40;;;2.30;;
1591;SDS011;789;51.612;7.510;2022-09-09T12:14:19;4.40;;;1.60;;
1591;SDS011;789;51.612;7.510;2022-09-09T12:16:47;5.17;;;1.80;;
1591;SDS011;789;51.612;7.510;2022-09-09T12:19:16;4.40;;;2.10;;
1591;SDS011;789;51.612;7.510;2022-09-09T12:21:52;4.17;;;2.20;;
1591;SDS011;789;51.612;7.510;2022-09-09T12:24:27;2.87;;;1.43;;
1591;SDS011;789;51.612;7.510;2022-09-09T12:27:01;3.73;;;2.20;;
1591;SDS011;789;51.612;7.510;2022-09-09T12:29:36;6.07;;;1.37;;
1591;SDS011;789;51.612;7.510;2022-09-09T12:32:10;4.10;;;1.90;;
1591;SDS011;789;51.612;7.510;2022-09-09T12:34:39;4.43;;;2.40;;
1591;SDS011;789;51.612;7.510;2022-09-09T12:37:13;6.27;;;3.63;;
1591;SDS011;789;51.612;7.510;2022-09-09T12:39:45;14.33;;;7.00;;
1591;SDS011;789;51.612;7.510;2022-09-09T12:42:17;8.87;;;2.77;;
1591;SDS011;789;51.612;7.510;2022-09-09T12:44:52;13.70;;;6.20;;
1591;SDS011;789;51.612;7.510;2022-09-09T12:47:20;8.93;;;2.80;;
1591;SDS011;789;51.612;7.510;2022-09-09T12:49:52;4.33;;;1.63;;
1591;SDS011;789;51.612;7.510;2022-09-09T12:52:23;4.73;;;1.40;;
1591;SDS011;789;51.612;7.510;2022-09-09T12:54:55;4.37;;;1.90;;
1591;SDS011;789;51.612;7.510;2022-09-09T12:57:24;2.97;;;1.20;;
1591;SDS011;789;51.612;7.510;2022-09-09T13:00:03;3.07;;;1.47;;
1591;SDS011;789;51.612;7.510;2022-09-09T13:02:33;3.00;;;1.70;;
1591;SDS011;789;51.612;7.510;2022-09-09T13:05:06;9.17;;;3.93;;
1591;SDS011;789;51.612;7.510;2022-09-09T13:07:41;5.47;;;2.73;;
1591;SDS011;789;51.612;7.510;2022-09-09T13:10:10;7.90;;;2.80;;
1591;SDS011;789;51.612;7.510;2022-09-09T13:12:39;5.90;;;2.20;;
1591;SDS011;789;51.612;7.510;2022-09-09T13:15:14;3.37;;;1.97;;
1591;SDS011;789;51.612;7.510;2022-09-09T13:17:51;4.60;;;1.63;;
1591;SDS011;789;51.612;7.510;2022-09-09T13:20:20;6.90;;;2.87;;
1591;SDS011;789;51.612;7.510;2022-09-09T13:22:49;6.53;;;2.47;;
1591;SDS011;789;51.612;7.510;2022-09-09T13:25:18;5.23;;;2.10;;
1591;SDS011;789;51.612;7.510;2022-09-09T13:27:53;11.40;;;2.40;;
1591;SDS011;789;51.612;7.510;2022-09-09T13:30:23;4.73;;;2.30;;
1591;SDS011;789;51.612;7.510;2022-09-09T13:33:06;4.00;;;2.27;;
1591;SDS011;789;51.612;7.510;2022-09-09T13:35:48;3.43;;;1.93;;
1591;SDS011;789;51.612;7.510;2022-09-09T13:38:16;3.53;;;1.50;;
1591;SDS011;789;51.612;7.510;2022-09-09T13:43:29;4.03;;;1.93;;
1591;SDS011;789;51.612;7.510;2022-09-09T13:46:00;3.57;;;1.80;;
1591;SDS011;789;51.612;7.510;2022-09-09T13:48:28;11.30;;;8.10;;
1591;SDS011;789;51.612;7.510;2022-09-09T13:50:57;6.73;;;5.50;;
1591;SDS011;789;51.612;7.510;2022-09-09T13:53:27;7.30;;;2.37;;
1591;SDS011;789;51.612;7.510;2022-09-09T13:55:54;6.27;;;2.60;;
1591;SDS011;789;51.612;7.510;2022-09-09T13:58:22;5.90;;;2.30;;
1591;SDS011;789;51.612;7.510;2022-09-09T14:00:51;6.27;;;3.07;;
1591;SDS011;789;51.612;7.510;2022-09-09T14:03:19;6.47;;;2.63;;
1591;SDS011;789;51.612;7.510;2022-09-09T14:05:47;4.90;;;1.80;;
1591;SDS011;789;51.612;7.510;2022-09-09T14:08:21;4.50;;;1.83;;
1591;SDS011;789;51.612;7.510;2022-09-09T14:10:50;3.33;;;1.73;;
1591;SDS011;789;51.612;7.510;2022-09-09T14:13:20;7.70;;;2.00;;
1591;SDS011;789;51.612;7.510;2022-09-09T14:15:48;4.43;;;3.23;;
1591;SDS011;789;51.612;7.510;2022-09-09T14:18:17;12.23;;;11.13;;
1591;SDS011;789;51.612;7.510;2022-09-09T14:20:44;5.53;;;1.70;;
1591;SDS011;789;51.612;7.510;2022-09-09T14:23:11;4.87;;;1.83;;
1591;SDS011;789;51.612;7.510;2022-09-09T14:25:41;4.40;;;1.40;;
1591;SDS011;789;51.612;7.510;2022-09-09T14:28:09;6.70;;;2.60;;
1591;SDS011;789;51.612;7.510;2022-09-09T14:30:37;2.57;;;1.50;;
1591;SDS011;789;51.612;7.510;2022-09-09T14:33:05;4.93;;;1.63;;
1591;SDS011;789;51.612;7.510;2022-09-09T14:35:33;2.97;;;1.60;;
1591;SDS011;789;51.612;7.510;2022-09-09T14:38:01;3.70;;;1.60;;
1591;SDS011;789;51.612;7.510;2022-09-09T14:40:28;2.83;;;1.60;;
1591;SDS011;789;51.612;7.510;2022-09-09T14:42:55;3.07;;;1.40;;
1591;SDS011;789;51.612;7.510;2022-09-09T14:45:23;4.97;;;1.67;;
1591;SDS011;789;51.612;7.510;2022-09-09T14:47:51;4.33;;;1.63;;
1591;SDS011;789;51.612;7.510;2022-09-09T14:50:18;4.20;;;1.83;;
1591;SDS011;789;51.612;7.510;2022-09-09T14:52:47;4.47;;;1.70;;
1591;SDS011;789;51.612;7.510;2022-09-09T14:55:15;6.80;;;2.10;;
1591;SDS011;789;51.612;7.510;2022-09-09T14:57:42;5.30;;;1.87;;
1591;SDS011;789;51.612;7.510;2022-09-09T15:00:09;2.77;;;1.50;;
1591;SDS011;789;51.612;7.510;2022-09-09T15:02:38;5.20;;;1.80;;
1591;SDS011;789;51.612;7.510;2022-09-09T15:05:06;4.30;;;1.50;;
1591;SDS011;789;51.612;7.510;2022-09-09T15:07:33;4.70;;;1.60;;
1591;SDS011;789;51.612;7.510;2022-09-09T15:10:02;4.97;;;1.73;;
1591;SDS011;789;51.612;7.510;2022-09-09T15:12:29;8.97;;;2.17;;
1591;SDS011;789;51.612;7.510;2022-09-09T15:14:56;4.40;;;1.90;;
1591;SDS011;789;51.612;7.510;2022-09-09T15:17:23;3.23;;;1.40;;
1591;SDS011;789;51.612;7.510;2022-09-09T15:19:52;5.03;;;1.53;;
1591;SDS011;789;51.612;7.510;2022-09-09T15:22:19;5.13;;;2.13;;
1591;SDS011;789;51.612;7.510;2022-09-09T15:24:46;3.87;;;2.20;;
1591;SDS011;789;51.612;7.510;2022-09-09T15:27:14;3.50;;;2.17;;
1591;SDS011;789;51.612;7.510;2022-09-09T15:29:43;5.17;;;2.50;;
1591;SDS011;789;51.612;7.510;2022-09-09T15:32:11;8.20;;;4.50;;
1591;SDS011;789;51.612;7.510;2022-09-09T15:34:39;6.00;;;2.67;;
1591;SDS011;789;51.612;7.510;2022-09-09T15:37:06;6.13;;;2.90;;
1591;SDS011;789;51.612;7.510;2022-09-09T15:39:36;4.73;;;2.23;;
1591;SDS011;789;51.612;7.510;2022-09-09T15:42:02;3.50;;;1.70;;
1591;SDS011;789;51.612;7.510;2022-09-09T15:44:31;6.50;;;2.57;;
1591;SDS011;789;51.612;7.510;2022-09-09T15:47:04;4.53;;;2.20;;
1591;SDS011;789;51.612;7.510;2022-09-09T15:49:32;3.13;;;2.00;;
1591;SDS011;789;51.612;7.510;2022-09-09T15:51:59;7.17;;;2.53;;
1591;SDS011;789;51.612;7.510;2022-09-09T15:54:28;4.33;;;2.20;;
1591;SDS011;789;51.612;7.510;2022-09-09T15:56:58;4.50;;;1.57;;
1591;SDS011;789;51.612;7.510;2022-09-09T15:59:27;3.77;;;1.50;;
1591;SDS011;789;51.612;7.510;2022-09-09T16:01:56;1.97;;;1.23;;